Time;durP1;ratioP1;P1;durP2;ratioP2;P2;SDS_P1;SDS_P2;PMS_P1;PMS_P2;Temp;Humidity;BMP_temperature;BMP_pressure;BME280_temperature;BME280_humidity;BME280_pressure;Samples;Min_cycle;Max_cycle;Signal;HPM_P1;HPM_P2
2022/03/31 00:00:46;;;;;;;27.02;14.60;;;22.00;51.00;;;;;;5075649;28;20041;-71
2022/03/31 00:03:15;;;;;;;25.65;13.82;;;22.00;50.90;;;;;;5076141;28;20036;-70
2022/03/31 00:05:42;;;;;;;30.75;13.32;;;21.90;50.90;;;;;;5076216;28;20065;-70
2022/03/31 00:08:13;;;;;;;20.52;13.50;;;22.00;51.00;;;;;;5075419;28;20064;-70
2022/03/31 00:10:44;;;;;;;21.80;13.10;;;21.90;50.90;;;;;;5076078;28;20045;-70
2022/03/31 00:13:15;;;;;;;23.27;13.50;;;21.90;51.00;;;;;;5080176;28;20041;-70
2022/03/31 00:15:43;;;;;;;27.83;13.88;;;21.90;51.00;;;;;;5080093;28;20056;-71
2022/03/31 00:18:10;;;;;;;25.40;13.43;;;21.80;50.90;;;;;;5080162;28;20048;-70
2022/03/31 00:20:36;;;;;;;25.63;13.90;;;21.80;50.90;;;;;;5080183;28;20064;-70
2022/03/31 00:23:05;;;;;;;23.50;13.10;;;21.90;51.00;;;;;;5079221;28;20100;-70
2022/03/31 00:25:33;;;;;;;30.55;14.80;;;21.80;50.90;;;;;;5079852;28;20041;-70
2022/03/31 00:28:00;;;;;;;22.83;13.90;;;21.70;50.90;;;;;;5079148;28;20041;-70
2022/03/31 00:30:28;;;;;;;25.20;13.68;;;21.80;50.90;;;;;;5079203;28;20060;-70
2022/03/31 00:32:54;;;;;;;25.30;13.70;;;21.70;51.00;;;;;;5079871;28;20390;-70
2022/03/31 00:35:21;;;;;;;23.00;13.10;;;21.70;51.00;;;;;;5079799;28;20029;-70
2022/03/31 00:37:47;;;;;;;29.33;14.05;;;21.90;51.10;;;;;;5078892;28;20148;-70
2022/03/31 00:40:16;;;;;;;21.30;13.70;;;21.80;50.90;;;;;;5079627;28;20040;-70
2022/03/31 00:42:43;;;;;;;23.02;14.85;;;21.80;50.90;;;;;;5079655;28;20063;-70
2022/03/31 00:45:14;;;;;;;29.42;15.05;;;21.80;50.80;;;;;;5079587;28;20059;-70
2022/03/31 00:47:41;;;;;;;24.75;13.85;;;21.80;50.80;;;;;;5079010;28;20100;-70
2022/03/31 00:50:08;;;;;;;32.13;15.23;;;21.80;50.80;;;;;;5078861;28;20056;-71
2022/03/31 00:52:34;;;;;;;24.33;13.57;;;21.70;50.80;;;;;;5079581;28;20044;-70
2022/03/31 00:55:01;;;;;;;24.30;13.82;;;21.80;50.90;;;;;;5079349;28;20068;-70
2022/03/31 00:57:28;;;;;;;24.05;14.15;;;21.80;50.90;;;;;;5079436;28;20044;-70
2022/03/31 00:59:56;;;;;;;21.83;13.50;;;21.80;50.90;;;;;;5078593;28;20036;-70
2022/03/31 01:02:22;;;;;;;22.27;14.10;;;21.70;50.90;;;;;;5079447;28;20037;-70
2022/03/31 01:04:51;;;;;;;20.77;14.35;;;21.70;50.90;;;;;;5078860;28;20047;-70
2022/03/31 01:07:17;;;;;;;26.40;13.93;;;21.70;50.90;;;;;;5079100;28;20045;-70
2022/03/31 01:09:43;;;;;;;24.13;14.18;;;21.60;50.90;;;;;;5078089;28;20040;-70
2022/03/31 01:12:09;;;;;;;25.77;13.85;;;21.70;51.10;;;;;;5079060;28;20136;-70
2022/03/31 01:14:35;;;;;;;24.10;14.40;;;21.60;51.00;;;;;;5078962;28;20041;-70
2022/03/31 01:17:02;;;;;;;23.58;13.02;;;21.60;51.00;;;;;;5078968;28;20048;-70
2022/03/31 01:19:28;;;;;;;24.40;14.00;;;21.60;51.00;;;;;;5078780;28;20060;-70
2022/03/31 01:21:54;;;;;;;22.42;13.52;;;21.60;50.90;;;;;;5078136;28;20037;-70
2022/03/31 01:24:20;;;;;;;21.95;13.63;;;21.60;50.90;;;;;;5077856;28;20036;-70
2022/03/31 01:26:47;;;;;;;21.95;13.07;;;21.70;51.00;;;;;;5078546;28;20044;-70
2022/03/31 01:29:13;;;;;;;24.67;14.13;;;21.70;50.90;;;;;;5078167;28;20040;-70
2022/03/31 01:31:39;;;;;;;22.63;12.73;;;21.60;50.90;;;;;;5078696;28;20051;-69
2022/03/31 01:34:07;;;;;;;25.23;11.68;;;21.60;50.80;;;;;;5078490;28;20044;-69
2022/03/31 01:36:37;;;;;;;23.05;13.43;;;21.70;50.90;;;;;;5078726;28;20041;-70
2022/03/31 01:39:05;;;;;;;20.02;12.45;;;21.70;50.90;;;;;;5078348;28;20053;-70
2022/03/31 01:41:31;;;;;;;20.73;12.70;;;21.70;50.90;;;;;;5078709;28;20045;-71
2022/03/31 01:43:57;;;;;;;19.27;13.38;;;21.70;50.80;;;;;;5078479;28;20041;-70
2022/03/31 01:46:24;;;;;;;25.98;13.23;;;21.70;50.80;;;;;;5078325;28;20072;-70
2022/03/31 01:48:52;;;;;;;20.45;13.52;;;21.70;50.80;;;;;;5078502;28;20041;-70
2022/03/31 01:51:18;;;;;;;24.45;13.98;;;21.70;50.90;;;;;;5078505;28;20056;-70
2022/03/31 01:53:44;;;;;;;25.95;13.73;;;21.60;50.80;;;;;;5078159;28;20067;-70
2022/03/31 01:56:10;;;;;;;22.55;12.40;;;21.60;50.80;;;;;;5078087;28;20055;-70
2022/03/31 01:58:37;;;;;;;24.30;12.55;;;21.50;50.90;;;;;;5077069;28;20047;-70
2022/03/31 02:01:04;;;;;;;18.80;12.25;;;21.60;50.90;;;;;;5078144;28;20037;-70
2022/03/31 02:03:31;;;;;;;28.30;13.38;;;21.60;50.90;;;;;;5078218;28;20041;-70
2022/03/31 02:05:58;;;;;;;19.50;12.27;;;21.50;51.00;;;;;;5077914;28;20052;-70
2022/03/31 02:08:24;;;;;;;20.67;13.02;;;21.40;50.90;;;;;;5078082;28;20075;-70
2022/03/31 02:10:50;;;;;;;21.30;12.65;;;21.40;50.90;;;;;;5078117;28;20037;-70
2022/03/31 02:13:16;;;;;;;21.15;13.60;;;21.40;51.00;;;;;;5077895;28;20037;-69
2022/03/31 02:15:43;;;;;;;22.52;14.35;;;21.50;51.20;;;;;;5077678;28;20048;-70
2022/03/31 02:18:09;;;;;;;31.80;14.00;;;21.50;51.20;;;;;;5077688;28;20045;-70
2022/03/31 02:20:35;;;;;;;25.92;13.82;;;21.50;51.10;;;;;;5077819;28;20033;-70
2022/03/31 02:23:02;;;;;;;24.70;13.88;;;21.50;51.10;;;;;;5077326;28;20090;-70
2022/03/31 02:25:29;;;;;;;22.02;12.85;;;21.50;51.00;;;;;;5076629;28;20097;-70
2022/03/31 02:27:55;;;;;;;24.23;13.98;;;21.40;51.00;;;;;;5076383;28;20063;-71
2022/03/31 02:30:23;;;;;;;25.00;13.82;;;21.30;51.00;;;;;;5077704;28;20041;-70
2022/03/31 02:32:50;;;;;;;24.35;13.18;;;21.30;51.10;;;;;;5077646;28;20047;-70
2022/03/31 02:35:19;;;;;;;26.25;14.10;;;21.30;51.10;;;;;;5077235;28;20044;-70
2022/03/31 02:37:46;;;;;;;27.15;13.18;;;21.40;51.10;;;;;;5077565;28;20075;-70
2022/03/31 02:40:12;;;;;;;22.23;11.85;;;21.40;51.10;;;;;;5077378;28;20044;-69
2022/03/31 02:42:38;;;;;;;28.25;14.25;;;21.30;51.10;;;;;;5077355;28;20037;-70
2022/03/31 02:45:06;;;;;;;20.30;12.52;;;21.40;51.10;;;;;;5077304;28;20063;-70
2022/03/31 02:47:34;;;;;;;22.23;13.00;;;21.20;51.10;;;;;;5076775;28;20045;-69
2022/03/31 02:50:01;;;;;;;30.08;13.48;;;21.30;51.20;;;;;;5077168;28;20041;-70
2022/03/31 02:55:24;;;;;;;21.27;13.45;;;21.30;51.30;;;;;;5077287;28;20115;-70
2022/03/31 02:55:26;;;;;;;22.70;12.38;;;21.20;51.10;;;;;;5077037;28;20044;-69
2022/03/31 02:57:56;;;;;;;22.15;12.48;;;21.20;51.10;;;;;;5077122;28;20044;-69
2022/03/31 03:00:23;;;;;;;21.80;12.88;;;21.20;51.10;;;;;;5077207;28;20036;-70
2022/03/31 03:02:49;;;;;;;24.00;13.60;;;21.30;51.20;;;;;;5076313;28;20068;-70
2022/03/31 03:05:16;;;;;;;19.95;12.57;;;21.30;51.20;;;;;;5076832;28;20037;-70
2022/03/31 03:07:42;;;;;;;26.58;13.40;;;21.20;51.10;;;;;;5077125;28;20037;-69
2022/03/31 03:10:08;;;;;;;27.15;13.98;;;21.20;51.10;;;;;;5076924;28;20164;-69
2022/03/31 03:12:34;;;;;;;20.40;13.07;;;21.20;51.10;;;;;;5059634;28;20056;-70
2022/03/31 03:15:02;;;;;;;19.83;12.30;;;21.30;51.10;;;;;;5076692;28;20041;-70
2022/03/31 03:17:28;;;;;;;21.50;13.18;;;21.20;51.00;;;;;;5076621;28;20061;-70
2022/03/31 03:19:54;;;;;;;19.15;12.57;;;21.30;51.10;;;;;;5076496;28;20051;-70
2022/03/31 03:22:20;;;;;;;17.63;12.65;;;21.40;51.10;;;;;;5076757;28;20029;-70
2022/03/31 03:24:46;;;;;;;24.92;12.43;;;21.20;51.00;;;;;;5076516;28;20037;-70
2022/03/31 03:27:12;;;;;;;24.85;13.32;;;21.20;51.00;;;;;;5076811;28;20055;-69
2022/03/31 03:29:46;;;;;;;24.30;13.07;;;21.20;51.10;;;;;;5076685;28;20068;-69
2022/03/31 03:32:15;;;;;;;22.88;12.13;;;21.20;51.10;;;;;;5075879;28;20158;-70
2022/03/31 03:34:42;;;;;;;20.88;12.32;;;21.20;51.10;;;;;;5075572;28;20046;-70
2022/03/31 03:37:08;;;;;;;22.05;12.93;;;21.30;51.10;;;;;;5075261;28;20041;-70
2022/03/31 03:39:36;;;;;;;25.15;12.95;;;21.30;51.00;;;;;;5065091;28;20049;-70
2022/03/31 03:42:02;;;;;;;25.67;13.20;;;21.20;50.80;;;;;;5076641;28;20065;-70
2022/03/31 03:44:28;;;;;;;23.88;12.38;;;21.20;50.80;;;;;;5076396;28;20032;-70
2022/03/31 03:46:54;;;;;;;20.33;12.57;;;21.20;51.00;;;;;;5075842;28;20033;-70
2022/03/31 03:49:21;;;;;;;23.38;11.80;;;21.20;51.00;;;;;;5076473;28;20044;-70
2022/03/31 03:51:47;;;;;;;19.08;11.65;;;21.30;51.10;;;;;;5109464;28;20037;-70
2022/03/31 03:54:13;;;;;;;16.05;10.93;;;21.40;50.90;;;;;;5076265;28;20059;-70
2022/03/31 03:56:40;;;;;;;21.50;11.55;;;21.30;50.50;;;;;;5075389;28;20056;-70
2022/03/31 03:59:08;;;;;;;17.23;9.40;;;21.60;50.40;;;;;;5076206;28;20063;-70
2022/03/31 04:01:34;;;;;;;16.52;10.68;;;21.70;50.20;;;;;;5075938;28;20032;-70
2022/03/31 04:04:00;;;;;;;18.75;10.77;;;21.70;50.00;;;;;;5074979;28;20056;-70
2022/03/31 04:06:27;;;;;;;18.05;8.77;;;21.70;49.90;;;;;;5075270;28;20036;-71
2022/03/31 04:08:54;;;;;;;16.55;9.93;;;21.70;52.00;;;;;;5075861;28;20079;-71
2022/03/31 04:11:20;;;;;;;25.77;10.05;;;22.00;53.10;;;;;;5075838;28;20060;-71
2022/03/31 04:13:46;;;;;;;17.88;10.00;;;22.20;55.50;;;;;;5075603;28;20056;-71
2022/03/31 04:16:13;;;;;;;22.35;12.43;;;22.40;55.00;;;;;;5075505;28;20401;-72
2022/03/31 04:18:39;;;;;;;21.27;12.07;;;22.50;52.30;;;;;;5075678;28;20055;-71
2022/03/31 04:21:05;;;;;;;20.58;12.35;;;22.40;49.20;;;;;;5075573;28;20117;-71
2022/03/31 04:23:31;;;;;;;16.92;11.80;;;22.40;47.20;;;;;;5074646;28;20052;-69
2022/03/31 04:25:57;;;;;;;19.13;12.57;;;22.30;46.90;;;;;;5074530;28;20029;-69
2022/03/31 04:28:23;;;;;;;26.42;13.32;;;22.40;47.20;;;;;;5074914;28;20084;-69
2022/03/31 04:30:50;;;;;;;21.40;13.70;;;22.30;47.80;;;;;;5075401;28;20043;-70
2022/03/31 04:33:16;;;;;;;25.40;14.68;;;22.30;48.10;;;;;;5075470;28;20045;-69
2022/03/31 04:35:42;;;;;;;23.48;12.10;;;22.30;48.50;;;;;;5073678;28;20075;-69
2022/03/31 04:38:08;;;;;;;19.98;11.95;;;22.40;48.80;;;;;;5075100;28;20053;-69
2022/03/31 04:40:34;;;;;;;18.17;12.68;;;22.30;49.10;;;;;;5075285;28;20041;-69
2022/03/31 04:43:00;;;;;;;25.42;12.63;;;22.40;49.10;;;;;;5074520;28;20037;-68
2022/03/31 04:45:27;;;;;;;34.75;13.57;;;22.40;49.10;;;;;;5075267;28;20059;-69
2022/03/31 04:47:53;;;;;;;1.65;1.55;;;22.40;49.30;;;;;;5075426;28;20037;-68
2022/03/31 04:50:19;;;;;;;5.40;2.75;;;22.40;50.20;;;;;;5075225;28;20104;-68
2022/03/31 04:52:45;;;;;;;8.30;3.92;;;22.40;50.40;;;;;;5074497;28;20109;-68
2022/03/31 04:55:12;;;;;;;7.47;2.85;;;22.50;51.00;;;;;;5075268;28;20048;-69
2022/03/31 04:57:39;;;;;;;7.78;4.70;;;22.50;50.70;;;;;;5074426;28;20041;-69
2022/03/31 05:00:07;;;;;;;6.65;2.92;;;22.60;50.30;;;;;;5078932;28;20119;-69
2022/03/31 05:02:33;;;;;;;5.10;2.58;;;22.60;50.00;;;;;;5076416;28;20063;-70
2022/03/31 05:04:59;;;;;;;4.95;3.50;;;22.60;49.60;;;;;;5077738;28;20127;-70
2022/03/31 05:07:25;;;;;;;4.97;2.58;;;22.80;49.70;;;;;;5077870;28;20037;-69
2022/03/31 05:09:51;;;;;;;7.85;5.38;;;22.70;49.80;;;;;;5077675;28;20041;-71
2022/03/31 05:12:17;;;;;;;16.00;7.45;;;22.80;49.90;;;;;;5078078;28;20065;-70
2022/03/31 05:14:44;;;;;;;6.53;3.65;;;22.80;50.30;;;;;;5078570;28;20040;-70
2022/03/31 05:17:10;;;;;;;9.95;4.75;;;22.80;51.00;;;;;;5077995;28;20048;-70
2022/03/31 05:19:37;;;;;;;6.35;4.60;;;23.00;49.90;;;;;;5076318;28;20036;-71
2022/03/31 05:22:03;;;;;;;5.63;3.58;;;23.00;51.50;;;;;;5077957;28;20041;-71
2022/03/31 05:24:29;;;;;;;14.07;9.00;;;23.00;52.20;;;;;;5078029;28;20033;-71
2022/03/31 05:26:55;;;;;;;11.90;6.60;;;23.10;52.40;;;;;;5077618;28;20037;-71
2022/03/31 05:29:22;;;;;;;11.48;5.65;;;23.00;50.60;;;;;;5078016;28;20064;-70
2022/03/31 05:31:50;;;;;;;23.83;12.02;;;23.00;52.30;;;;;;5077966;28;20845;-70
2022/03/31 05:34:16;;;;;;;27.13;13.30;;;23.00;44.30;;;;;;5077935;28;20099;-68
2022/03/31 05:36:43;;;;;;;26.50;13.43;;;23.10;42.00;;;;;;5077535;28;20040;-68
2022/03/31 05:39:12;;;;;;;21.52;11.43;;;23.00;41.00;;;;;;5077336;28;20064;-68
2022/03/31 05:41:38;;;;;;;51.28;21.02;;;23.10;42.20;;;;;;5077777;28;20098;-68
2022/03/31 05:44:05;;;;;;;43.08;19.73;;;23.10;49.80;;;;;;5077814;28;20063;-67
2022/03/31 05:46:32;;;;;;;42.47;20.88;;;23.00;48.30;;;;;;5076611;28;20048;-68
2022/03/31 05:48:58;;;;;;;46.08;21.90;;;22.80;47.90;;;;;;5077595;28;20039;-68
2022/03/31 05:51:24;;;;;;;50.65;21.30;;;22.80;47.40;;;;;;5077625;28;20041;-68
2022/03/31 05:53:50;;;;;;;62.05;23.15;;;22.70;48.00;;;;;;5077786;28;20052;-66
2022/03/31 05:56:18;;;;;;;52.90;21.35;;;22.70;48.10;;;;;;5077581;28;20047;-67
2022/03/31 05:58:45;;;;;;;37.90;20.52;;;22.60;48.90;;;;;;5081480;28;20048;-69
2022/03/31 06:01:11;;;;;;;45.35;21.52;;;22.60;48.60;;;;;;5089656;28;20089;-69
2022/03/31 06:03:37;;;;;;;45.13;21.55;;;22.50;49.80;;;;;;5077454;28;20071;-70
2022/03/31 06:06:03;;;;;;;42.25;20.83;;;22.50;50.10;;;;;;5077211;28;20044;-69
2022/03/31 06:08:30;;;;;;;41.95;22.10;;;22.50;50.90;;;;;;5077363;28;20045;-71
2022/03/31 06:10:56;;;;;;;44.28;21.98;;;22.50;51.00;;;;;;5076629;28;20032;-69
2022/03/31 06:13:22;;;;;;;36.30;20.52;;;22.40;51.60;;;;;;5076745;28;20048;-71
2022/03/31 06:15:49;;;;;;;39.03;21.42;;;22.40;51.80;;;;;;5077312;28;20656;-70
2022/03/31 06:18:15;;;;;;;37.80;20.52;;;22.30;52.20;;;;;;5077128;28;20132;-69
2022/03/31 06:20:41;;;;;;;42.15;21.08;;;22.40;52.70;;;;;;5077101;28;20033;-69
2022/03/31 06:23:07;;;;;;;40.97;20.83;;;22.40;52.80;;;;;;5077347;28;20072;-67
2022/03/31 06:25:34;;;;;;;35.70;21.23;;;22.40;53.00;;;;;;5077142;28;20029;-68
2022/03/31 06:28:00;;;;;;;38.45;20.45;;;22.40;53.30;;;;;;5077074;28;20044;-68
2022/03/31 06:30:26;;;;;;;33.58;19.73;;;22.30;53.30;;;;;;5077228;28;20112;-68
2022/03/31 06:32:52;;;;;;;39.15;20.30;;;22.40;53.00;;;;;;5077040;28;20123;-69
2022/03/31 06:35:20;;;;;;;43.28;21.13;;;22.20;52.80;;;;;;5076088;28;20041;-69
2022/03/31 06:37:47;;;;;;;35.67;19.58;;;22.20;53.10;;;;;;5076358;28;20065;-68
2022/03/31 06:40:17;;;;;;;40.15;20.05;;;22.30;53.40;;;;;;5076949;28;20045;-69
2022/03/31 06:42:44;;;;;;;34.90;19.40;;;22.20;53.40;;;;;;5076802;28;20052;-68
2022/03/31 06:45:14;;;;;;;37.50;19.42;;;22.20;55.00;;;;;;5076663;28;20040;-68
2022/03/31 06:47:40;;;;;;;28.40;19.00;;;22.20;55.10;;;;;;5076778;28;20067;-68
2022/03/31 06:50:08;;;;;;;35.83;21.13;;;22.30;55.40;;;;;;5076773;28;20048;-67
2022/03/31 06:52:34;;;;;;;40.55;20.92;;;22.20;54.90;;;;;;5076354;28;20056;-68
2022/03/31 06:55:02;;;;;;;37.85;20.17;;;22.20;52.50;;;;;;5076165;28;20071;-67
2022/03/31 06:57:28;;;;;;;34.85;19.75;;;22.20;51.40;;;;;;5076748;28;20045;-67
2022/03/31 06:59:54;;;;;;;34.17;18.70;;;22.20;50.80;;;;;;5076284;28;20123;-67
2022/03/31 07:02:20;;;;;;;34.83;17.67;;;22.20;47.30;;;;;;5076062;28;20041;-68
2022/03/31 07:04:47;;;;;;;34.13;19.70;;;22.20;51.80;;;;;;5076175;28;20105;-67
2022/03/31 07:07:15;;;;;;;30.45;19.55;;;22.10;48.20;;;;;;5082718;28;20032;-68
2022/03/31 07:09:41;;;;;;;31.33;19.80;;;22.10;49.20;;;;;;5096384;28;20052;-67
2022/03/31 07:12:07;;;;;;;34.70;18.50;;;22.10;49.80;;;;;;5096229;28;20059;-67
2022/03/31 07:14:37;;;;;;;34.38;20.08;;;22.10;51.20;;;;;;5096039;28;20074;-66
2022/03/31 07:17:04;;;;;;;37.58;19.00;;;22.20;47.90;;;;;;5096237;28;20040;-66
2022/03/31 07:19:30;;;;;;;35.55;20.35;;;22.20;48.30;;;;;;5096104;28;20045;-67
2022/03/31 07:21:57;;;;;;;32.65;16.38;;;22.10;49.50;;;;;;5095791;28;20229;-67
2022/03/31 07:24:23;;;;;;;24.15;13.77;;;22.30;54.50;;;;;;5094899;28;20047;-68
2022/03/31 07:26:50;;;;;;;23.98;15.00;;;22.30;55.20;;;;;;5088632;28;20033;-67
2022/03/31 07:29:16;;;;;;;32.20;15.93;;;22.50;55.40;;;;;;5054436;28;20038;-68
2022/03/31 07:31:42;;;;;;;28.30;14.43;;;22.50;55.50;;;;;;5054927;28;20041;-68
2022/03/31 07:34:08;;;;;;;30.63;16.95;;;22.60;55.80;;;;;;5054788;28;20033;-68
2022/03/31 07:36:34;;;;;;;31.20;17.30;;;22.60;55.80;;;;;;5054911;28;20039;-67
2022/03/31 07:39:00;;;;;;;34.25;17.25;;;22.60;55.60;;;;;;5054463;28;20052;-68
2022/03/31 07:41:28;;;;;;;29.80;17.00;;;22.60;55.50;;;;;;5054194;28;20065;-68
2022/03/31 07:43:54;;;;;;;28.65;15.15;;;22.60;54.90;;;;;;5053970;28;20045;-68
2022/03/31 07:46:20;;;;;;;32.53;17.67;;;22.90;54.50;;;;;;5054589;28;20041;-67
2022/03/31 07:48:46;;;;;;;28.50;15.05;;;22.80;52.80;;;;;;5055868;28;20037;-66
2022/03/31 07:51:12;;;;;;;34.10;16.45;;;22.80;53.70;;;;;;5055661;28;20068;-66
2022/03/31 07:53:42;;;;;;;28.70;15.18;;;22.90;53.40;;;;;;5055459;28;20037;-68
2022/03/31 07:56:09;;;;;;;37.13;17.83;;;22.90;52.80;;;;;;5054981;28;20033;-67
2022/03/31 07:58:36;;;;;;;30.35;16.15;;;22.90;52.00;;;;;;5053493;28;20068;-67
2022/03/31 08:01:02;;;;;;;31.20;16.52;;;22.90;52.00;;;;;;5055547;28;20067;-68
2022/03/31 08:03:28;;;;;;;37.33;16.85;;;23.00;52.20;;;;;;5055453;28;20042;-68
2022/03/31 08:05:55;;;;;;;40.22;19.05;;;23.00;52.60;;;;;;5055150;28;20045;-67
2022/03/31 08:08:21;;;;;;;33.92;16.88;;;23.00;51.40;;;;;;5088855;28;20033;-67
2022/03/31 08:10:49;;;;;;;34.67;16.17;;;23.10;50.90;;;;;;5095420;28;20040;-68
2022/03/31 08:13:28;;;;;;;29.75;15.30;;;23.00;51.10;;;;;;5094904;28;20032;-67
2022/03/31 08:15:56;;;;;;;30.67;16.52;;;23.00;51.10;;;;;;5095506;28;20473;-67
2022/03/31 08:18:28;;;;;;;33.13;17.27;;;23.00;49.40;;;;;;5094369;28;20029;-67
2022/03/31 08:20:56;;;;;;;32.85;18.25;;;23.10;49.00;;;;;;5094557;28;20038;-67
2022/03/31 08:23:22;;;;;;;32.25;17.02;;;23.10;48.30;;;;;;5095701;28;20032;-67
2022/03/31 08:25:49;;;;;;;29.02;16.70;;;23.10;47.70;;;;;;5095459;28;20057;-68
2022/03/31 08:28:15;;;;;;;26.58;15.75;;;23.10;46.90;;;;;;5095462;28;20036;-67
2022/03/31 08:30:42;;;;;;;29.27;15.00;;;23.10;46.80;;;;;;5095278;28;20047;-67
2022/03/31 08:33:08;;;;;;;35.05;17.40;;;23.10;46.10;;;;;;5097898;28;20090;-67
2022/03/31 08:35:35;;;;;;;35.70;18.98;;;23.20;46.10;;;;;;5099317;28;20043;-67
2022/03/31 08:38:01;;;;;;;35.40;17.23;;;23.10;45.50;;;;;;5099026;28;20056;-67
2022/03/31 08:40:27;;;;;;;28.40;17.02;;;23.10;45.20;;;;;;5099045;28;20116;-67
2022/03/31 08:42:54;;;;;;;35.05;17.25;;;23.20;44.50;;;;;;5099092;28;20033;-67
2022/03/31 08:45:22;;;;;;;29.45;16.65;;;23.00;44.80;;;;;;5091044;28;20041;-73
2022/03/31 08:47:50;;;;;;;11.07;7.40;;;23.10;45.10;;;;;;5095294;28;20080;-69
2022/03/31 08:50:18;;;;;;;88.43;35.05;;;23.20;45.70;;;;;;5091300;28;20045;-66
2022/03/31 08:52:44;;;;;;;100.20;34.17;;;23.30;45.00;;;;;;5079097;28;20044;-64
2022/03/31 08:55:12;;;;;;;58.92;30.92;;;23.50;43.90;;;;;;5087152;28;20103;-65
2022/03/31 08:57:49;;;;;;;35.42;18.58;;;23.60;41.50;;;;;;5098242;28;20036;-65
2022/03/31 09:00:20;;;;;;;35.28;18.83;;;23.50;42.20;;;;;;5098954;28;20036;-66
2022/03/31 09:02:58;;;;;;;35.97;17.50;;;23.60;42.60;;;;;;5098730;28;20044;-66
2022/03/31 09:05:27;;;;;;;36.75;17.27;;;23.60;42.40;;;;;;5098802;28;20036;-69
2022/03/31 09:07:58;;;;;;;36.78;15.85;;;23.40;42.50;;;;;;5098671;28;20040;-69
2022/03/31 09:10:38;;;;;;;36.53;17.13;;;23.40;43.00;;;;;;5098934;28;20036;-69
2022/03/31 09:13:17;;;;;;;37.22;16.80;;;23.50;43.20;;;;;;5098779;28;20041;-72
2022/03/31 09:15:56;;;;;;;32.75;16.63;;;23.50;42.90;;;;;;5098609;28;20036;-74
2022/03/31 09:18:24;;;;;;;33.95;16.15;;;23.50;43.00;;;;;;5098581;28;20082;-76
2022/03/31 09:20:58;;;;;;;37.83;14.73;;;23.60;47.30;;;;;;5098441;28;20052;-78
2022/03/31 09:23:29;;;;;;;23.25;15.88;;;24.00;50.60;;;;;;5098547;28;20032;-68
2022/03/31 09:26:09;;;;;;;27.27;16.52;;;24.00;44.80;;;;;;5098543;28;20047;-69
2022/03/31 09:28:39;;;;;;;39.67;17.13;;;24.10;37.90;;;;;;5098583;28;20040;-68
2022/03/31 09:31:09;;;;;;;24.50;14.55;;;24.00;36.00;;;;;;5098126;28;20040;-68
2022/03/31 09:33:37;;;;;;;26.23;15.70;;;23.90;37.40;;;;;;5098422;28;20095;-68
2022/03/31 09:36:05;;;;;;;29.27;14.98;;;23.90;38.10;;;;;;5098063;28;20040;-67
2022/03/31 09:38:37;;;;;;;27.10;15.18;;;23.90;39.10;;;;;;5098147;28;20064;-68
2022/03/31 09:41:17;;;;;;;28.65;15.00;;;23.90;38.30;;;;;;5098210;28;20037;-67
2022/03/31 09:43:43;;;;;;;25.95;14.23;;;23.90;39.00;;;;;;5097459;28;20037;-68
2022/03/31 09:46:23;;;;;;;27.45;13.25;;;24.00;39.40;;;;;;5098242;28;20104;-69
2022/03/31 09:48:50;;;;;;;27.17;14.52;;;24.10;40.60;;;;;;5098034;28;20095;-69
2022/03/31 09:51:18;;;;;;;26.85;14.23;;;24.10;41.30;;;;;;5097237;28;20029;-69
2022/03/31 09:53:51;;;;;;;23.55;12.85;;;24.10;43.50;;;;;;5096843;28;20047;-68
2022/03/31 09:56:19;;;;;;;25.17;13.68;;;24.30;45.30;;;;;;5098129;28;20074;-68
2022/03/31 09:58:47;;;;;;;27.77;15.75;;;24.30;38.00;;;;;;5096752;28;20044;-68
2022/03/31 10:01:17;;;;;;;22.40;13.82;;;24.30;44.30;;;;;;5097772;28;20063;-68
2022/03/31 10:03:44;;;;;;;26.15;13.73;;;24.30;45.70;;;;;;5097909;28;20053;-68
2022/03/31 10:06:13;;;;;;;20.42;11.50;;;24.10;45.30;;;;;;5097585;28;20041;-68
2022/03/31 10:08:42;;;;;;;27.08;13.98;;;24.20;45.30;;;;;;5097677;28;20100;-68
2022/03/31 10:11:10;;;;;;;19.58;12.10;;;24.10;45.50;;;;;;5097385;28;20037;-68
2022/03/31 10:14:14;;;;;;;26.20;12.55;;;24.10;45.70;;;;;;5097474;28;20067;-68
2022/03/31 10:16:47;;;;;;;23.85;11.65;;;24.00;46.00;;;;;;5081724;28;20041;-68
2022/03/31 10:19:47;;;;;;;22.80;12.27;;;23.90;46.10;;;;;;5097455;28;20048;-68
2022/03/31 10:25:10;;;;;;;26.58;11.82;;;23.90;45.80;;;;;;5097308;28;20027;-69
2022/03/31 10:27:40;;;;;;;16.05;9.70;;;23.80;45.70;;;;;;5097156;28;20048;-69
2022/03/31 10:30:18;;;;;;;23.67;10.98;;;23.80;45.60;;;;;;5097372;28;20100;-69
2022/03/31 10:32:57;;;;;;;24.10;11.43;;;23.80;45.80;;;;;;5097260;28;20054;-68
2022/03/31 10:35:25;;;;;;;16.40;9.68;;;23.80;46.50;;;;;;5096400;28;20040;-68
2022/03/31 10:37:52;;;;;;;22.02;11.00;;;23.80;46.90;;;;;;5096984;28;20116;-68
2022/03/31 10:40:48;;;;;;;15.65;10.40;;;23.80;47.00;;;;;;5096948;28;20059;-68
2022/03/31 10:43:27;;;;;;;23.30;10.52;;;23.80;47.30;;;;;;5096371;28;20037;-67
2022/03/31 10:45:54;;;;;;;17.73;11.00;;;23.70;47.30;;;;;;5096896;28;20096;-67
2022/03/31 10:48:27;;;;;;;19.67;10.57;;;23.70;47.30;;;;;;5096646;28;20067;-67
2022/03/31 10:51:30;;;;;;;17.58;9.60;;;23.80;47.50;;;;;;5085356;28;20041;-67
2022/03/31 10:53:57;;;;;;;21.90;9.30;;;23.80;49.70;;;;;;5076787;28;20091;-68
2022/03/31 10:56:26;;;;;;;18.83;9.18;;;23.70;49.30;;;;;;5075342;28;20051;-69
2022/03/31 10:59:04;;;;;;;21.20;10.50;;;23.70;48.90;;;;;;5076493;28;20041;-69
2022/03/31 11:01:36;;;;;;;16.02;8.85;;;23.70;48.80;;;;;;5076547;28;20033;-67
2022/03/31 11:04:08;;;;;;;14.32;8.82;;;23.80;49.20;;;;;;5076589;28;20152;-67
2022/03/31 11:06:48;;;;;;;;;;;23.70;49.50;;;;;;5076150;28;20037;-67
2022/03/31 11:09:31;;;;;;;24.38;9.75;;;23.60;49.20;;;;;;5076294;28;19931;-67
2022/03/31 11:11:59;;;;;;;24.08;8.60;;;23.80;49.00;;;;;;5076592;28;20048;-67
2022/03/31 11:14:26;;;;;;;16.85;9.85;;;23.70;48.90;;;;;;5076255;28;20113;-68
2022/03/31 11:16:53;;;;;;;19.60;10.25;;;23.80;48.90;;;;;;5076209;28;20037;-66
2022/03/31 11:19:20;;;;;;;18.92;10.25;;;23.70;48.70;;;;;;5075082;28;20100;-67
2022/03/31 11:21:47;;;;;;;23.20;10.77;;;23.70;48.60;;;;;;5076180;28;20048;-70
2022/03/31 11:24:13;;;;;;;14.85;8.32;;;23.70;48.50;;;;;;5076225;28;20040;-69
2022/03/31 11:26:44;;;;;;;20.88;9.90;;;23.80;48.70;;;;;;5058752;28;20033;-69
2022/03/31 11:29:22;;;;;;;20.10;10.15;;;23.70;48.50;;;;;;5075842;28;20049;-71
2022/03/31 11:31:50;;;;;;;28.33;10.38;;;23.80;47.40;;;;;;5076219;28;20056;-70
2022/03/31 11:34:22;;;;;;;21.10;10.95;;;23.80;47.00;;;;;;5076240;28;20127;-71
2022/03/31 11:36:51;;;;;;;21.48;10.52;;;23.80;46.80;;;;;;5075833;28;20071;-71
2022/03/31 11:39:28;;;;;;;20.88;9.82;;;23.70;46.40;;;;;;5074745;28;20067;-71
2022/03/31 11:41:55;;;;;;;19.60;9.82;;;23.70;46.20;;;;;;5076195;28;20104;-69
2022/03/31 11:44:24;;;;;;;18.23;7.85;;;23.80;46.70;;;;;;5075958;28;20436;-70
2022/03/31 11:46:51;;;;;;;20.13;9.25;;;23.80;44.10;;;;;;5074856;28;20040;-68
2022/03/31 11:49:20;;;;;;;17.92;8.30;;;23.70;34.70;;;;;;5075729;28;20040;-70
2022/03/31 11:51:54;;;;;;;16.70;7.85;;;23.70;41.10;;;;;;5076083;28;20052;-74
2022/03/31 11:54:23;;;;;;;16.27;6.57;;;23.70;35.80;;;;;;5075866;28;20051;-74
2022/03/31 11:57:12;;;;;;;27.38;7.65;;;23.80;43.50;;;;;;5075846;28;20075;-74
2022/03/31 11:59:38;;;;;;;18.17;8.38;;;23.80;44.10;;;;;;5075010;28;20037;-67
2022/03/31 12:02:22;;;;;;;22.08;7.65;;;23.70;44.30;;;;;;5075815;28;20059;-68
2022/03/31 12:04:49;;;;;;;18.08;8.43;;;23.60;44.20;;;;;;5074499;28;20051;-68
2022/03/31 12:07:18;;;;;;;18.60;8.88;;;23.60;42.90;;;;;;5075843;28;20043;-68
2022/03/31 12:09:44;;;;;;;28.23;7.40;;;23.70;43.80;;;;;;5079422;28;20140;-68
2022/03/31 12:12:12;;;;;;;19.17;8.77;;;23.60;43.90;;;;;;5079983;28;20104;-68
2022/03/31 12:14:40;;;;;;;17.25;7.90;;;23.60;40.90;;;;;;5079868;28;20036;-66
2022/03/31 12:17:07;;;;;;;17.42;7.35;;;23.50;41.20;;;;;;5079835;28;20052;-68
2022/03/31 12:19:41;;;;;;;18.42;7.50;;;23.60;43.20;;;;;;5079094;28;20064;-68
2022/03/31 12:22:09;;;;;;;17.75;7.05;;;23.60;43.60;;;;;;5079641;28;20071;-68
2022/03/31 12:24:48;;;;;;;17.30;7.15;;;23.60;43.20;;;;;;5079599;28;20037;-67
2022/03/31 12:27:17;;;;;;;15.35;7.65;;;23.50;40.60;;;;;;5079869;28;20033;-68
2022/03/31 12:29:44;;;;;;;22.25;9.60;;;23.50;39.10;;;;;;5078800;28;20041;-68
2022/03/31 12:32:10;;;;;;;18.20;7.22;;;23.50;36.00;;;;;;5078642;28;20067;-68
2022/03/31 12:34:39;;;;;;;25.08;7.30;;;23.50;41.60;;;;;;5079554;28;20052;-68
2022/03/31 12:37:07;;;;;;;19.45;8.18;;;23.60;43.30;;;;;;5079338;28;20056;-66
2022/03/31 12:39:40;;;;;;;18.33;6.32;;;23.50;41.30;;;;;;5079144;28;20072;-68